createdAt,value
2023-04-22T00:00:05.315Z,0.00
2023-04-22T00:01:04.384Z,0.00
2023-04-22T00:02:04.671Z,0.00
2023-04-22T00:03:04.697Z,0.00
2023-04-22T00:04:05.431Z,0.00
2023-04-22T00:05:04.399Z,0.00
2023-04-22T00:06:04.410Z,0.00
2023-04-22T00:07:04.410Z,0.00
2023-04-22T00:08:05.321Z,0.00
2023-04-22T00:09:05.227Z,0.00
2023-04-22T00:10:05.131Z,0.00
2023-04-22T00:11:04.325Z,0.00
2023-04-22T00:12:05.202Z,0.00
2023-04-22T00:13:04.316Z,0.00
2023-04-22T00:14:04.307Z,0.00
2023-04-22T00:15:05.196Z,0.00
2023-04-22T00:16:04.339Z,0.00
2023-04-22T00:17:05.233Z,0.00
2023-04-22T00:18:04.312Z,0.00
2023-04-22T00:19:04.271Z,0.00
2023-04-22T00:20:04.241Z,0.00
2023-04-22T00:21:04.326Z,0.00
2023-04-22T00:22:05.009Z,0.00
2023-04-22T00:23:04.251Z,0.00
2023-04-22T00:24:04.219Z,0.00
2023-04-22T00:25:05.222Z,0.00
2023-04-22T00:26:05.128Z,0.00
2023-04-22T00:27:05.036Z,0.00
2023-04-22T00:28:04.196Z,0.00
2023-04-22T00:29:04.187Z,0.00
2023-04-22T00:30:04.999Z,0.00
2023-04-22T00:31:05.227Z,0.00
2023-04-22T00:32:04.357Z,0.00
2023-04-22T00:33:04.400Z,0.00
2023-04-22T00:34:04.127Z,0.00
2023-04-22T00:35:04.174Z,0.00
2023-04-22T00:36:04.154Z,0.00
2023-04-22T00:37:04.149Z,0.00
2023-04-22T00:38:04.114Z,0.00
2023-04-22T00:39:04.125Z,0.00
2023-04-22T00:40:05.069Z,0.00
2023-04-22T00:41:04.108Z,0.00
2023-04-22T00:42:05.129Z,0.00
2023-04-22T00:43:04.075Z,0.00
2023-04-22T00:44:04.110Z,0.00
2023-04-22T00:45:04.070Z,0.00
2023-04-22T00:46:04.097Z,0.00
2023-04-22T00:47:04.208Z,0.00
2023-04-22T00:48:05.122Z,0.00
2023-04-22T00:49:04.975Z,0.00
2023-04-22T00:50:04.883Z,0.00
2023-04-22T00:51:05.032Z,0.00
2023-04-22T00:52:04.933Z,0.00
2023-04-22T00:53:04.037Z,0.00
2023-04-22T00:54:04.004Z,0.00
2023-04-22T00:55:04.922Z,0.00
2023-04-22T00:56:03.986Z,0.00
2023-04-22T00:57:04.006Z,0.00
2023-04-22T00:58:04.871Z,0.00
2023-04-22T00:59:03.990Z,0.00
2023-04-22T01:00:04.286Z,0.00
2023-04-22T01:01:04.882Z,0.00
2023-04-22T01:02:04.872Z,0.00
2023-04-22T01:03:04.153Z,0.00
2023-04-22T01:04:04.043Z,0.00
2023-04-22T01:05:04.716Z,0.00
2023-04-22T01:06:03.932Z,0.00
2023-04-22T01:07:04.802Z,0.00
2023-04-22T01:08:04.706Z,0.00
2023-04-22T01:09:04.839Z,0.00
2023-04-22T01:10:04.751Z,0.00
2023-04-22T01:11:04.919Z,0.00
2023-04-22T01:12:04.813Z,0.00
2023-04-22T01:13:04.714Z,0.00
2023-04-22T01:14:04.880Z,0.00
2023-04-22T01:15:05.168Z,0.00
2023-04-22T01:16:04.766Z,0.00
2023-04-22T01:17:03.934Z,0.00
2023-04-22T01:18:04.823Z,0.00
2023-04-22T01:19:04.653Z,0.00
2023-04-22T01:20:03.848Z,0.00
2023-04-22T01:21:04.716Z,0.00
2023-04-22T01:22:03.829Z,0.00
2023-04-22T01:23:04.777Z,0.00
2023-04-22T01:24:04.680Z,0.00
2023-04-22T01:25:03.815Z,0.00
2023-04-22T01:26:04.760Z,0.00
2023-04-22T01:27:04.532Z,0.00
2023-04-22T01:28:04.597Z,0.00
2023-04-22T01:29:04.713Z,0.00
2023-04-22T01:30:03.782Z,0.00
2023-04-22T01:31:04.515Z,0.00
2023-04-22T01:32:04.760Z,0.00
2023-04-22T01:33:03.852Z,0.00
2023-04-22T01:34:04.744Z,0.00
2023-04-22T01:35:03.729Z,0.00
2023-04-22T01:36:04.554Z,0.00
2023-04-22T01:37:03.768Z,0.00
2023-04-22T01:38:04.693Z,0.00
2023-04-22T01:39:04.667Z,0.00
2023-04-22T01:40:03.673Z,0.00
2023-04-22T01:41:03.705Z,0.00
2023-04-22T01:42:03.705Z,0.00
2023-04-22T01:43:03.679Z,0.00
2023-04-22T01:44:04.554Z,0.00
2023-04-22T01:45:04.457Z,0.00
2023-04-22T01:46:04.666Z,0.00
2023-04-22T01:47:04.523Z,0.00
2023-04-22T01:48:04.440Z,0.00
2023-04-22T01:49:03.626Z,0.00
2023-04-22T01:50:03.684Z,0.00
2023-04-22T01:51:04.394Z,0.00
2023-04-22T01:52:03.636Z,0.00
2023-04-22T01:53:03.608Z,0.00
2023-04-22T01:54:04.365Z,0.00
2023-04-22T01:55:04.519Z,0.00
2023-04-22T01:56:04.430Z,0.00
2023-04-22T01:57:04.586Z,0.00
2023-04-22T01:58:03.581Z,0.00
2023-04-22T01:59:04.397Z,0.00
2023-04-22T02:00:04.566Z,0.00
2023-04-22T02:01:04.501Z,0.00
2023-04-22T02:02:04.414Z,0.00
2023-04-22T02:03:04.666Z,0.00
2023-04-22T02:04:04.432Z,0.00
2023-04-22T02:05:04.387Z,0.00
2023-04-22T02:06:04.493Z,0.00
2023-04-22T02:07:04.392Z,0.00
2023-04-22T02:08:04.307Z,0.00
2023-04-22T02:09:04.466Z,0.00
2023-04-22T02:10:04.452Z,0.00
2023-04-22T02:11:04.272Z,0.00
2023-04-22T02:12:04.441Z,0.00
2023-04-22T02:13:04.354Z,0.00
2023-04-22T02:14:04.231Z,0.00
2023-04-22T02:15:04.447Z,0.00
2023-04-22T02:16:04.334Z,0.00
2023-04-22T02:17:03.498Z,0.00
2023-04-22T02:18:04.363Z,0.00
2023-04-22T02:19:04.266Z,0.00
2023-04-22T02:20:03.502Z,0.00
2023-04-22T02:21:03.408Z,0.00
2023-04-22T02:22:03.415Z,0.00
2023-04-22T02:23:04.398Z,0.00
2023-04-22T02:24:03.373Z,0.00
2023-04-22T02:25:03.368Z,0.00
2023-04-22T02:26:03.381Z,0.00
2023-04-22T02:27:04.270Z,0.00
2023-04-22T02:28:03.398Z,0.00
2023-04-22T02:29:03.393Z,0.00
2023-04-22T02:30:03.362Z,0.00
2023-04-22T02:31:03.354Z,0.00
2023-04-22T02:32:03.371Z,0.00
2023-04-22T02:33:03.383Z,0.00
2023-04-22T02:34:04.111Z,0.00
2023-04-22T02:35:04.287Z,0.00
2023-04-22T02:36:03.350Z,0.00
2023-04-22T02:37:03.309Z,0.00
2023-04-22T02:38:04.244Z,0.00
2023-04-22T02:39:03.308Z,0.00
2023-04-22T02:40:04.048Z,0.00
2023-04-22T02:41:04.198Z,0.00
2023-04-22T02:42:04.165Z,0.00
2023-04-22T02:43:04.263Z,0.00
2023-04-22T02:44:04.166Z,0.00
2023-04-22T02:45:03.239Z,0.00
2023-04-22T02:46:03.260Z,0.00
2023-04-22T02:47:03.319Z,0.00
2023-04-22T02:48:04.084Z,0.00
2023-04-22T02:49:04.199Z,0.00
2023-04-22T02:50:03.198Z,0.00
2023-04-22T02:51:04.006Z,0.00
2023-04-22T02:52:03.227Z,0.00
2023-04-22T02:53:03.166Z,0.00
2023-04-22T02:54:03.174Z,0.00
2023-04-22T02:55:04.135Z,0.00
2023-04-22T02:56:03.187Z,0.00
2023-04-22T02:57:03.153Z,0.00
2023-04-22T02:58:04.118Z,0.00
2023-04-22T02:59:03.140Z,0.00
2023-04-22T03:00:03.922Z,0.00
2023-04-22T03:01:04.186Z,0.00
2023-04-22T03:02:06.508Z,0.00
2023-04-22T03:03:03.998Z,0.00
2023-04-22T03:04:04.211Z,0.00
2023-04-22T03:05:03.094Z,0.00
2023-04-22T03:06:04.118Z,0.00
2023-04-22T03:07:03.087Z,0.00
2023-04-22T03:08:03.910Z,0.00
2023-04-22T03:09:03.072Z,0.00
2023-04-22T03:10:03.973Z,0.00
2023-04-22T03:11:03.881Z,0.00
2023-04-22T03:12:04.043Z,0.00
2023-04-22T03:13:03.971Z,0.00
2023-04-22T03:14:03.856Z,0.00
2023-04-22T03:15:04.004Z,0.00
2023-04-22T03:16:03.937Z,0.00
2023-04-22T03:17:03.273Z,0.00
2023-04-22T03:18:03.124Z,0.00
2023-04-22T03:19:02.997Z,0.00
2023-04-22T03:20:03.015Z,0.00
2023-04-22T03:21:02.996Z,0.00
2023-04-22T03:22:03.866Z,0.00
2023-04-22T03:23:02.966Z,0.00
2023-04-22T03:24:03.945Z,0.00
2023-04-22T03:25:03.818Z,0.00
2023-04-22T03:26:03.725Z,0.00
2023-04-22T03:27:02.968Z,0.00
2023-04-22T03:28:02.953Z,0.00
2023-04-22T03:29:03.948Z,0.00
2023-04-22T03:30:03.851Z,0.00
2023-04-22T03:31:02.929Z,0.00
2023-04-22T03:32:03.977Z,0.00
2023-04-22T03:33:02.962Z,0.00
2023-04-22T03:34:02.914Z,0.00
2023-04-22T03:35:03.885Z,0.00
2023-04-22T03:36:02.880Z,0.00
2023-04-22T03:37:03.695Z,0.00
2023-04-22T03:38:03.853Z,0.00
2023-04-22T03:39:03.752Z,0.00
2023-04-22T03:40:03.660Z,0.00
2023-04-22T03:41:02.850Z,0.00
2023-04-22T03:42:03.724Z,0.00
2023-04-22T03:43:03.652Z,0.00
2023-04-22T03:44:02.816Z,0.00
2023-04-22T03:45:02.835Z,0.00
2023-04-22T03:46:03.628Z,0.00
2023-04-22T03:47:03.762Z,4.00
2023-04-22T03:48:03.710Z,1.00
2023-04-22T03:49:02.788Z,0.00
2023-04-22T03:50:03.730Z,0.00
2023-04-22T03:51:02.764Z,0.00
2023-04-22T03:52:02.803Z,1.00
2023-04-22T03:53:02.775Z,1.00
2023-04-22T03:54:03.594Z,1.00
2023-04-22T03:55:02.738Z,1.00
2023-04-22T03:56:02.776Z,3.00
2023-04-22T03:57:03.560Z,3.00
2023-04-22T03:58:03.729Z,3.00
2023-04-22T03:59:03.646Z,3.00
2023-04-22T04:00:03.535Z,4.00
2023-04-22T04:01:02.716Z,19.00
2023-04-22T04:02:02.835Z,19.00
2023-04-22T04:03:02.905Z,23.00
2023-04-22T04:04:03.875Z,12.00
2023-04-22T04:05:02.909Z,8.00
2023-04-22T04:06:02.701Z,20.00
2023-04-22T04:07:02.687Z,30.00
2023-04-22T04:08:03.533Z,38.00
2023-04-22T04:09:03.429Z,39.00
2023-04-22T04:10:02.646Z,40.00
2023-04-22T04:11:03.522Z,36.00
2023-04-22T04:12:03.411Z,37.00
2023-04-22T04:13:03.576Z,46.00
2023-04-22T04:14:02.603Z,49.00
2023-04-22T04:15:03.638Z,41.00
2023-04-22T04:16:03.601Z,59.00
2023-04-22T04:17:02.609Z,79.00
2023-04-22T04:18:03.628Z,63.00
2023-04-22T04:19:02.712Z,86.00
2023-04-22T04:20:02.580Z,84.00
2023-04-22T04:21:02.530Z,103.00
2023-04-22T04:22:02.567Z,143.00
2023-04-22T04:23:02.571Z,141.00
2023-04-22T04:24:02.538Z,153.00
2023-04-22T04:25:03.427Z,141.00
2023-04-22T04:26:02.537Z,179.00
2023-04-22T04:27:02.521Z,224.00
2023-04-22T04:28:03.400Z,231.00
2023-04-22T04:29:02.506Z,241.00
2023-04-22T04:30:02.526Z,283.00
2023-04-22T04:31:03.378Z,304.00
2023-04-22T04:32:02.481Z,356.00
2023-04-22T04:33:03.563Z,383.00
2023-04-22T04:34:03.333Z,406.00
2023-04-22T04:35:02.477Z,451.00
2023-04-22T04:36:03.394Z,495.00
2023-04-22T04:37:02.471Z,549.00
2023-04-22T04:38:03.213Z,609.00
2023-04-22T04:39:02.439Z,688.00
2023-04-22T04:40:03.298Z,715.00
2023-04-22T04:41:03.452Z,698.00
2023-04-22T04:42:02.415Z,750.00
2023-04-22T04:43:02.555Z,807.00
2023-04-22T04:44:02.517Z,891.00
2023-04-22T04:45:02.481Z,961.00
2023-04-22T04:46:03.246Z,1052.00
2023-04-22T04:47:02.427Z,1123.00
2023-04-22T04:48:03.335Z,1188.00
2023-04-22T04:49:02.682Z,1255.00
2023-04-22T04:50:02.349Z,1292.00
2023-04-22T04:51:03.232Z,1310.00
2023-04-22T04:52:02.400Z,1304.00
2023-04-22T04:53:02.340Z,1287.00
2023-04-22T04:54:02.325Z,1295.00
2023-04-22T04:55:03.124Z,1347.00
2023-04-22T04:56:02.316Z,1348.00
2023-04-22T04:57:02.313Z,1369.00
2023-04-22T04:58:03.077Z,1404.00
2023-04-22T04:59:03.243Z,1458.00
2023-04-22T05:00:02.318Z,1548.00
2023-04-22T05:01:03.044Z,1662.00
2023-04-22T05:02:03.258Z,1765.00
2023-04-22T05:03:03.259Z,1847.00
2023-04-22T05:04:02.368Z,1913.00
2023-04-22T05:05:02.391Z,1950.00
2023-04-22T05:06:03.079Z,1985.00
2023-04-22T05:07:03.237Z,2020.00
2023-04-22T05:08:02.231Z,2108.00
2023-04-22T05:09:03.047Z,2210.00
2023-04-22T05:10:02.260Z,2315.00
2023-04-22T05:11:03.110Z,2505.00
2023-04-22T05:12:02.228Z,2628.00
2023-04-22T05:13:04.261Z,2797.00
2023-04-22T05:14:03.146Z,2826.00
2023-04-22T05:15:02.998Z,2840.00
2023-04-22T05:16:03.172Z,2731.00
2023-04-22T05:17:03.055Z,2689.00
2023-04-22T05:18:02.973Z,2690.00
2023-04-22T05:19:02.153Z,2722.00
2023-04-22T05:20:02.161Z,2766.00
2023-04-22T05:21:02.928Z,2804.00
2023-04-22T05:22:03.096Z,2798.00
2023-04-22T05:23:03.026Z,2766.00
2023-04-22T05:24:02.884Z,2708.00
2023-04-22T05:25:03.048Z,2660.00
2023-04-22T05:26:02.953Z,2600.00
2023-04-22T05:27:02.869Z,2549.00
2023-04-22T05:28:02.101Z,2506.00
2023-04-22T05:29:02.075Z,2471.00
2023-04-22T05:30:02.087Z,2395.00
2023-04-22T05:31:03.038Z,2217.00
2023-04-22T05:32:02.194Z,2259.00
2023-04-22T05:33:03.096Z,2344.00
2023-04-22T05:34:02.059Z,2409.00
2023-04-22T05:35:02.043Z,2578.00
2023-04-22T05:36:02.040Z,2587.00
2023-04-22T05:37:02.921Z,2714.00
2023-04-22T05:38:03.045Z,2902.00
2023-04-22T05:40:14.270Z,0.00
2023-04-22T05:42:39.107Z,0.00
2023-04-22T05:43:39.107Z,3944.00
2023-04-22T05:44:39.096Z,3988.00
2023-04-22T05:45:39.149Z,4122.00
2023-04-22T05:46:39.147Z,4148.00
2023-04-22T05:47:39.088Z,4392.00
2023-04-22T05:48:39.056Z,4409.00
2023-04-22T05:49:39.344Z,4266.00
2023-04-22T05:50:39.051Z,4556.00
2023-04-22T05:51:39.065Z,4632.00
2023-04-22T05:52:39.086Z,4758.00
2023-04-22T05:53:39.091Z,4802.00
2023-04-22T05:54:39.118Z,4848.00
2023-04-22T05:55:39.125Z,5014.00
2023-04-22T05:56:39.049Z,4827.00
2023-04-22T05:57:39.183Z,5319.00
2023-04-22T05:58:39.030Z,4893.00
2023-04-22T05:59:39.474Z,5560.00
2023-04-22T06:00:39.088Z,5273.00
2023-04-22T06:01:39.117Z,5478.00
2023-04-22T06:02:39.333Z,5449.00
2023-04-22T06:03:39.378Z,5423.00
2023-04-22T06:04:39.598Z,5471.00
2023-04-22T06:05:39.297Z,5424.00
2023-04-22T06:06:39.260Z,5437.00
2023-04-22T06:07:39.275Z,5583.00
2023-04-22T06:08:39.280Z,5652.00
2023-04-22T06:09:39.549Z,5706.00
2023-04-22T06:10:38.921Z,5946.00
2023-04-22T06:11:38.967Z,6170.00
2023-04-22T06:12:39.039Z,6330.00
2023-04-22T06:13:38.896Z,6370.00
2023-04-22T06:14:38.921Z,6444.00
2023-04-22T06:15:38.939Z,6365.00
2023-04-22T06:16:39.240Z,6727.00
2023-04-22T06:17:38.914Z,6265.00
2023-04-22T06:18:38.926Z,6669.00
2023-04-22T06:19:39.092Z,7463.00
2023-04-22T06:20:38.948Z,6854.00
2023-04-22T06:21:38.967Z,6871.00
2023-04-22T06:22:38.954Z,6796.00
2023-04-22T06:23:38.935Z,7372.00
2023-04-22T06:24:38.970Z,7331.00
2023-04-22T06:25:38.977Z,7321.00
2023-04-22T06:26:38.995Z,6976.00
2023-04-22T06:27:39.024Z,8054.00
2023-04-22T06:28:39.139Z,8840.00
2023-04-22T06:29:39.334Z,8133.00
2023-04-22T06:30:38.792Z,8397.00
2023-04-22T06:31:39.170Z,8095.00
2023-04-22T06:32:38.986Z,8121.00
2023-04-22T06:33:39.032Z,8254.00
2023-04-22T06:34:39.072Z,8318.00
2023-04-22T06:35:38.772Z,8408.00
2023-04-22T06:36:39.148Z,8439.00
2023-04-22T06:37:38.784Z,8683.00
2023-04-22T06:38:38.783Z,8722.00
2023-04-22T06:39:38.925Z,8942.00
2023-04-22T06:40:38.726Z,8947.00
2023-04-22T06:41:40.831Z,9085.00
2023-04-22T06:42:38.833Z,8812.00
2023-04-22T06:43:38.908Z,8684.00
2023-04-22T06:44:38.703Z,8362.00
2023-04-22T06:45:39.036Z,8128.00
2023-04-22T06:46:39.152Z,7857.00
2023-04-22T06:47:38.713Z,7679.00
2023-04-22T06:48:39.162Z,7297.00
2023-04-22T06:49:39.117Z,7625.00
2023-04-22T06:50:39.378Z,7070.00
2023-04-22T06:51:39.287Z,7807.00
2023-04-22T06:52:38.870Z,7935.00
2023-04-22T06:53:39.296Z,7767.00
2023-04-22T06:54:38.954Z,7909.00
2023-04-22T06:55:38.655Z,8211.00
2023-04-22T06:56:38.698Z,8464.00
2023-04-22T06:57:38.630Z,9785.00
2023-04-22T06:58:38.692Z,9144.00
2023-04-22T06:59:39.069Z,9233.00
2023-04-22T07:00:38.793Z,9259.00
2023-04-22T07:01:38.830Z,8949.00
2023-04-22T07:02:38.680Z,9023.00
2023-04-22T07:03:38.685Z,8257.00
2023-04-22T07:04:40.141Z,8323.00
2023-04-22T07:05:39.782Z,8438.00
2023-04-22T07:06:38.587Z,8168.00
2023-04-22T07:07:38.609Z,8460.00
2023-04-22T07:08:38.548Z,8065.00
2023-04-22T07:09:38.891Z,8113.00
2023-04-22T07:10:38.694Z,8483.00
2023-04-22T07:11:38.720Z,8401.00
2023-04-22T07:12:38.520Z,7789.00
2023-04-22T07:13:38.480Z,8056.00
2023-04-22T07:14:38.920Z,7727.00
2023-04-22T07:15:38.994Z,8783.00
2023-04-22T07:16:38.513Z,8295.00
2023-04-22T07:17:38.780Z,8336.00
2023-04-22T07:18:39.044Z,8628.00
2023-04-22T07:19:38.845Z,8356.00
2023-04-22T07:20:39.110Z,8357.00
2023-04-22T07:21:38.657Z,7961.00
2023-04-22T07:22:39.449Z,9028.00
2023-04-22T07:23:39.067Z,8599.00
2023-04-22T07:24:39.021Z,8999.00
2023-04-22T07:25:38.637Z,9277.00
2023-04-22T07:26:38.689Z,9127.00
2023-04-22T07:27:39.143Z,9494.00
2023-04-22T07:28:38.381Z,9414.00
2023-04-22T07:29:38.640Z,9144.00
2023-04-22T07:30:38.367Z,9566.00
2023-04-22T07:31:39.403Z,9551.00
2023-04-22T07:32:38.584Z,9587.00
2023-04-22T07:33:38.945Z,9474.00
2023-04-22T07:34:38.402Z,10027.00
2023-04-22T07:35:38.340Z,10057.00
2023-04-22T07:36:38.352Z,10565.00
2023-04-22T07:37:38.336Z,10295.00
2023-04-22T07:38:38.454Z,10180.00
2023-04-22T07:39:38.731Z,10790.00
2023-04-22T07:40:38.451Z,10264.00
2023-04-22T07:41:38.442Z,10085.00
2023-04-22T07:42:38.345Z,9752.00
2023-04-22T07:43:38.682Z,9823.00
2023-04-22T07:44:39.604Z,9543.00
2023-04-22T07:45:38.306Z,9325.00
2023-04-22T07:46:38.416Z,8949.00
2023-04-22T07:47:38.391Z,8669.00
2023-04-22T07:48:39.193Z,8086.00
2023-04-22T07:49:39.039Z,7828.00
2023-04-22T07:50:38.933Z,7115.00
2023-04-22T07:51:38.657Z,7224.00
2023-04-22T07:52:38.273Z,6726.00
2023-04-22T07:53:38.336Z,6472.00
2023-04-22T07:54:38.225Z,7126.00
2023-04-22T07:55:38.250Z,6668.00
2023-04-22T07:56:38.319Z,7169.00
2023-04-22T07:57:38.171Z,7215.00
2023-04-22T07:58:38.151Z,6519.00
2023-04-22T07:59:38.434Z,6671.00
2023-04-22T08:00:38.636Z,6979.00
2023-04-22T08:01:38.588Z,7499.00
2023-04-22T08:02:38.768Z,6550.00
2023-04-22T08:03:38.398Z,7409.00
2023-04-22T08:04:38.239Z,7843.00
2023-04-22T08:05:38.179Z,7906.00
2023-04-22T08:06:38.224Z,7597.00
2023-04-22T08:07:38.274Z,7879.00
2023-04-22T08:08:38.356Z,7894.00
2023-04-22T08:09:38.552Z,7498.00
2023-04-22T08:10:38.486Z,8328.00
2023-04-22T08:11:38.237Z,8164.00
2023-04-22T08:12:38.318Z,7737.00
2023-04-22T08:13:38.089Z,8956.00
2023-04-22T08:14:38.059Z,9464.00
2023-04-22T08:15:38.237Z,9359.00
2023-04-22T08:16:38.590Z,8252.00
2023-04-22T08:17:38.794Z,8718.00
2023-04-22T08:18:38.072Z,8960.00
2023-04-22T08:19:38.416Z,8431.00
2023-04-22T08:20:38.337Z,7935.00
2023-04-22T08:21:38.744Z,6372.00
2023-04-22T08:22:38.412Z,7534.00
2023-04-22T08:23:38.876Z,7911.00
2023-04-22T08:24:38.900Z,7425.00
2023-04-22T08:25:38.275Z,7779.00
2023-04-22T08:26:38.916Z,8027.00
2023-04-22T08:27:38.362Z,7929.00
2023-04-22T08:28:39.023Z,8108.00
2023-04-22T08:29:39.215Z,7632.00
2023-04-22T08:30:38.712Z,8048.00
2023-04-22T08:31:38.912Z,8156.00
2023-04-22T08:32:38.947Z,8147.00
2023-04-22T08:33:38.788Z,8035.00
2023-04-22T08:34:38.966Z,8227.00
2023-04-22T08:35:37.928Z,8210.00
2023-04-22T08:36:37.967Z,8425.00
2023-04-22T08:37:38.024Z,8526.00
2023-04-22T08:38:37.943Z,8676.00
2023-04-22T08:39:38.352Z,8778.00
2023-04-22T08:40:37.920Z,9217.00
2023-04-22T08:41:38.254Z,9020.00
2023-04-22T08:42:38.310Z,8576.00
2023-04-22T08:43:37.852Z,9196.00
2023-04-22T08:44:37.858Z,9453.00
2023-04-22T08:45:37.863Z,9411.00
2023-04-22T08:46:39.358Z,9618.00
2023-04-22T08:47:37.918Z,9803.00
2023-04-22T08:48:37.897Z,9756.00
2023-04-22T08:49:38.069Z,9829.00
2023-04-22T08:50:37.903Z,9754.00
2023-04-22T08:51:37.826Z,10545.00
2023-04-22T08:52:37.869Z,9704.00
2023-04-22T08:53:37.909Z,9837.00
2023-04-22T08:54:37.992Z,10761.00
2023-04-22T08:55:38.025Z,10909.00
2023-04-22T08:56:38.027Z,9541.00
2023-04-22T08:57:37.944Z,10184.00
2023-04-22T08:58:38.044Z,10998.00
2023-04-22T08:59:38.391Z,11411.00
2023-04-22T09:00:37.762Z,10974.00
2023-04-22T09:01:37.789Z,11565.00
2023-04-22T09:02:37.778Z,11340.00
2023-04-22T09:03:37.906Z,11298.00
2023-04-22T09:04:39.215Z,11526.00
2023-04-22T09:05:37.927Z,11470.00
2023-04-22T09:06:37.778Z,11373.00
2023-04-22T09:07:38.083Z,11451.00
2023-04-22T09:08:38.168Z,11685.00
2023-04-22T09:09:38.397Z,11560.00
2023-04-22T09:10:38.229Z,11644.00
2023-04-22T09:11:37.912Z,11905.00
2023-04-22T09:12:38.060Z,11871.00
2023-04-22T09:13:38.246Z,12093.00
2023-04-22T09:14:39.100Z,12646.00
2023-04-22T09:15:38.048Z,12359.00
2023-04-22T09:16:37.718Z,12496.00
2023-04-22T09:17:38.111Z,12472.00
2023-04-22T09:18:38.178Z,12738.00
2023-04-22T09:19:38.099Z,12943.00
2023-04-22T09:20:37.992Z,12966.00
2023-04-22T09:21:37.674Z,13327.00
2023-04-22T09:22:38.350Z,13463.00
2023-04-22T09:23:38.034Z,13732.00
2023-04-22T09:24:37.670Z,13952.00
2023-04-22T09:25:37.846Z,14242.00
2023-04-22T09:26:38.408Z,14584.00
2023-04-22T09:27:38.405Z,15002.00
2023-04-22T09:28:37.695Z,15038.00
2023-04-22T09:29:37.955Z,15389.00
2023-04-22T09:30:37.605Z,15430.00
2023-04-22T09:31:37.550Z,15412.00
2023-04-22T09:32:37.535Z,15605.00
2023-04-22T09:33:37.650Z,15592.00
2023-04-22T09:34:37.667Z,15555.00
2023-04-22T09:35:38.960Z,15655.00
2023-04-22T09:36:37.954Z,15374.00
2023-04-22T09:37:46.518Z,15696.00
2023-04-22T09:38:37.743Z,15993.00
2023-04-22T09:39:37.876Z,15880.00
2023-04-22T09:40:37.867Z,16354.00
2023-04-22T09:41:37.464Z,16677.00
2023-04-22T09:42:37.532Z,16912.00
2023-04-22T09:43:38.240Z,17422.00
2023-04-22T09:44:37.922Z,17610.00
2023-04-22T09:45:37.673Z,17849.00
2023-04-22T09:46:37.431Z,17604.00
2023-04-22T09:47:37.487Z,17592.00
2023-04-22T09:48:37.454Z,17843.00
2023-04-22T09:49:37.826Z,17980.00
2023-04-22T09:50:37.504Z,18274.00
2023-04-22T09:51:37.424Z,18275.00
2023-04-22T09:52:37.373Z,18303.00
2023-04-22T09:53:37.448Z,18507.00
2023-04-22T09:54:37.943Z,18819.00
2023-04-22T09:55:37.385Z,19312.00
2023-04-22T09:56:37.546Z,19413.00
2023-04-22T09:57:37.421Z,19551.00
2023-04-22T09:58:37.741Z,19944.00
2023-04-22T09:59:37.555Z,19769.00
2023-04-22T10:00:37.307Z,20394.00
2023-04-22T10:01:37.368Z,20375.00
2023-04-22T10:02:37.374Z,20846.00
2023-04-22T10:03:37.400Z,20624.00
2023-04-22T10:04:38.047Z,21274.00
2023-04-22T10:05:37.342Z,21311.00
2023-04-22T10:06:37.441Z,21502.00
2023-04-22T10:07:37.401Z,21811.00
2023-04-22T10:08:37.407Z,22386.00
2023-04-22T10:09:37.723Z,21780.00
2023-04-22T10:10:37.407Z,21082.00
2023-04-22T10:11:37.466Z,20820.00
2023-04-22T10:12:37.364Z,20517.00
2023-04-22T10:13:37.481Z,20126.00
2023-04-22T10:14:37.512Z,19920.00
2023-04-22T10:15:37.498Z,19330.00
2023-04-22T10:16:37.490Z,18936.00
2023-04-22T10:17:37.335Z,18450.00
2023-04-22T10:18:37.512Z,17971.00
2023-04-22T10:19:37.743Z,17703.00
2023-04-22T10:20:37.538Z,17650.00
2023-04-22T10:21:37.565Z,17619.00
2023-04-22T10:22:37.569Z,17562.00
2023-04-22T10:23:37.590Z,17347.00
2023-04-22T10:24:38.047Z,17569.00
2023-04-22T10:25:37.604Z,17455.00
2023-04-22T10:26:37.329Z,17531.00
2023-04-22T10:27:37.133Z,17306.00
2023-04-22T10:28:37.219Z,17432.00
2023-04-22T10:29:37.127Z,17284.00
2023-04-22T10:30:37.117Z,17206.00
2023-04-22T10:31:37.127Z,17158.00
2023-04-22T10:32:37.272Z,17269.00
2023-04-22T10:33:37.323Z,17447.00
2023-04-22T10:34:37.652Z,17407.00
2023-04-22T10:35:37.184Z,17449.00
2023-04-22T10:36:37.114Z,17567.00
2023-04-22T10:37:37.219Z,17817.00
2023-04-22T10:38:37.061Z,17716.00
2023-04-22T10:39:37.226Z,17478.00
2023-04-22T10:40:37.233Z,17827.00
2023-04-22T10:41:37.091Z,18115.00
2023-04-22T10:42:37.272Z,18351.00
2023-04-22T10:43:37.012Z,18457.00
2023-04-22T10:44:37.025Z,18800.00
2023-04-22T10:45:37.006Z,18537.00
2023-04-22T10:46:37.072Z,18958.00
2023-04-22T10:47:37.069Z,19487.00
2023-04-22T10:48:37.022Z,19717.00
2023-04-22T10:49:37.132Z,11933.00
2023-04-22T10:50:36.991Z,24941.00
2023-04-22T10:51:37.068Z,59459.00
2023-04-22T10:52:37.082Z,64772.00
2023-04-22T10:53:36.957Z,63446.00
2023-04-22T10:54:37.141Z,66283.00
2023-04-22T10:55:37.055Z,70022.00
2023-04-22T10:56:39.072Z,67150.00
2023-04-22T10:57:36.979Z,71701.00
2023-04-22T10:58:36.887Z,71535.00
2023-04-22T10:59:37.264Z,57943.00
2023-04-22T11:00:51.736Z,62250.00
2023-04-22T11:01:37.274Z,155956.00
2023-04-22T11:02:37.143Z,156410.00
2023-04-22T11:03:37.107Z,149766.00
2023-04-22T11:04:36.983Z,150993.00
2023-04-22T11:05:37.270Z,150460.00
2023-04-22T11:06:37.293Z,150069.00
2023-04-22T11:07:36.848Z,152001.00
2023-04-22T11:08:37.253Z,152315.00
2023-04-22T11:09:36.976Z,153332.00
2023-04-22T11:10:37.370Z,150634.00
2023-04-22T11:11:37.368Z,152945.00
2023-04-22T11:12:37.365Z,156846.00
2023-04-22T11:13:37.388Z,161925.00
2023-04-22T11:14:37.398Z,157937.00
2023-04-22T11:15:37.415Z,159470.00
2023-04-22T11:16:37.105Z,155684.00
2023-04-22T11:17:36.872Z,154103.00
2023-04-22T11:18:36.876Z,156145.00
2023-04-22T11:19:36.970Z,155503.00
2023-04-22T11:20:36.771Z,156637.00
2023-04-22T11:21:37.281Z,152803.00
2023-04-22T11:22:37.486Z,152397.00
2023-04-22T11:23:37.547Z,150732.00
2023-04-22T11:24:37.539Z,155994.00
2023-04-22T11:25:36.710Z,156841.00
2023-04-22T11:26:36.697Z,155659.00
2023-04-22T11:27:36.765Z,155001.00
2023-04-22T11:28:36.820Z,160374.00
2023-04-22T11:29:37.010Z,155688.00
2023-04-22T11:30:36.673Z,158791.00
2023-04-22T11:31:36.757Z,157689.00
2023-04-22T11:32:36.710Z,155734.00
2023-04-22T11:33:36.751Z,150741.00
2023-04-22T11:34:37.110Z,149500.00
2023-04-22T11:35:37.155Z,143466.00
2023-04-22T11:36:36.633Z,52571.00
2023-04-22T11:37:36.640Z,74376.00
2023-04-22T11:38:36.904Z,57285.00
2023-04-22T11:41:02.576Z,0.00
2023-04-22T11:42:02.779Z,156062.00
2023-04-22T11:43:02.596Z,158732.00
2023-04-22T11:44:02.712Z,156933.00
2023-04-22T11:45:02.919Z,155999.00
2023-04-22T11:46:02.939Z,156824.00
2023-04-22T11:47:02.541Z,156764.00
2023-04-22T11:48:02.952Z,139860.00
2023-04-22T11:49:02.619Z,57592.00
2023-04-22T11:50:02.536Z,57976.00
2023-04-22T11:51:02.939Z,75566.00
2023-04-22T11:52:02.983Z,36280.00
2023-04-22T11:53:02.609Z,76889.00
2023-04-22T11:54:02.583Z,52489.00
2023-04-22T11:55:02.674Z,68011.00
2023-04-22T11:56:02.503Z,60956.00
2023-04-22T11:57:03.994Z,73346.00
2023-04-22T11:58:04.201Z,59369.00
2023-04-22T11:59:02.528Z,153193.00
2023-04-22T12:00:03.474Z,149748.00
2023-04-22T12:01:02.607Z,155709.00
2023-04-22T12:02:03.083Z,155328.00
2023-04-22T12:03:03.110Z,157532.00
2023-04-22T12:04:02.758Z,164619.00
2023-04-22T12:05:02.454Z,155119.00
2023-04-22T12:06:02.630Z,154868.00
2023-04-22T12:07:02.409Z,155518.00
2023-04-22T12:08:02.864Z,159314.00
2023-04-22T12:09:02.376Z,162642.00
2023-04-22T12:10:02.396Z,163885.00
2023-04-22T12:11:02.388Z,163434.00
2023-04-22T12:12:02.903Z,163724.00
2023-04-22T12:13:02.486Z,164037.00
2023-04-22T12:14:02.690Z,156888.00
2023-04-22T12:15:02.493Z,156959.00
2023-04-22T12:16:02.814Z,157218.00
2023-04-22T12:17:02.961Z,151217.00
2023-04-22T12:18:02.346Z,150163.00
2023-04-22T12:19:03.142Z,150158.00
2023-04-22T12:20:02.333Z,149972.00
2023-04-22T12:21:02.352Z,150615.00
2023-04-22T12:22:02.469Z,150549.00
2023-04-22T12:23:02.270Z,150437.00
2023-04-22T12:24:02.434Z,151164.00
2023-04-22T12:25:02.500Z,159408.00